Time;durP1;ratioP1;P1;durP2;ratioP2;P2;SDS_P1;SDS_P2;PMS_P1;PMS_P2;Temp;Humidity;BMP_temperature;BMP_pressure;BME280_temperature;BME280_humidity;BME280_pressure;Samples;Min_cycle;Max_cycle;Signal;HPM_P1;HPM_P2
2021/03/06 00:00:16;;;;;;;3.55;2.00;;;;;;;-4.50;71.23;103114.41;5042860;28;20188;-73
2021/03/06 00:02:42;;;;;;;5.60;2.20;;;;;;;-4.55;72.38;103117.31;5046698;28;20391;-76
2021/03/06 00:05:09;;;;;;;4.30;2.35;;;;;;;-4.61;72.59;103112.44;5046228;28;20029;-75
2021/03/06 00:07:35;;;;;;;4.35;2.28;;;;;;;-4.62;71.70;103116.84;5046058;28;20036;-75
2021/03/06 00:10:02;;;;;;;3.80;2.17;;;;;;;-4.70;72.08;103113.81;5044840;28;20029;-74
2021/03/06 00:12:29;;;;;;;4.25;2.10;;;;;;;-4.77;73.01;103120.34;5047236;28;20471;-72
2021/03/06 00:14:54;;;;;;;4.35;2.40;;;;;;;-4.77;74.21;103114.28;5038291;28;20773;-76
2021/03/06 00:17:20;;;;;;;5.55;2.33;;;;;;;-4.76;73.78;103118.59;5045227;28;20033;-77
2021/03/06 00:19:45;;;;;;;4.38;2.20;;;;;;;-4.79;73.15;103119.59;5043486;28;20644;-77
2021/03/06 00:22:11;;;;;;;4.78;2.30;;;;;;;-4.78;73.41;103118.66;5036160;28;20029;-77
2021/03/06 00:24:36;;;;;;;4.72;2.58;;;;;;;-4.79;73.30;103119.59;5049896;28;20043;-77
2021/03/06 00:27:02;;;;;;;4.00;1.92;;;;;;;-4.87;73.44;103124.44;5037574;28;20035;-76
2021/03/06 00:29:28;;;;;;;3.78;2.20;;;;;;;-4.89;73.49;103124.50;5053066;28;20074;-77
2021/03/06 00:31:53;;;;;;;3.58;2.35;;;;;;;-4.88;73.03;103126.19;5042454;28;20329;-77
2021/03/06 00:34:18;;;;;;;4.38;2.03;;;;;;;-4.90;72.53;103122.84;5043566;28;20037;-77
2021/03/06 00:36:44;;;;;;;2.97;2.00;;;;;;;-4.93;72.88;103120.41;5037379;28;20025;-77
2021/03/06 00:39:09;;;;;;;5.30;2.63;;;;;;;-4.98;73.00;103119.84;5039768;28;20025;-77
2021/03/06 00:41:35;;;;;;;3.13;2.50;;;;;;;-5.01;73.29;103116.56;5040260;28;20106;-76
2021/03/06 00:44:00;;;;;;;4.88;2.35;;;;;;;-5.07;73.67;103115.13;5041927;28;20036;-77
2021/03/06 00:46:27;;;;;;;7.82;3.13;;;;;;;-5.11;73.77;103112.78;5043915;28;20091;-76
2021/03/06 00:48:53;;;;;;;4.10;2.20;;;;;;;-5.12;73.97;103104.09;5041585;28;20566;-77
2021/03/06 00:51:19;;;;;;;5.72;2.33;;;;;;;-5.18;73.67;103113.16;5044707;28;20102;-76
2021/03/06 00:53:45;;;;;;;5.30;2.65;;;;;;;-5.17;75.17;103106.16;5042763;28;20044;-77
2021/03/06 00:56:11;;;;;;;7.10;2.92;;;;;;;-5.19;74.37;103110.63;5037203;28;20483;-76
2021/03/06 00:58:36;;;;;;;4.53;2.47;;;;;;;-5.16;74.00;103107.81;5044982;28;20029;-77
2021/03/06 01:01:05;;;;;;;6.75;2.55;;;;;;;-5.20;73.93;103109.78;5038380;28;20025;-77
2021/03/06 01:03:30;;;;;;;4.93;2.92;;;;;;;-5.25;73.88;103110.94;5042483;28;20382;-77
2021/03/06 01:05:56;;;;;;;5.80;3.58;;;;;;;-5.29;74.03;103101.59;5042914;28;20029;-76
2021/03/06 01:08:21;;;;;;;6.90;2.40;;;;;;;-5.33;74.77;103100.09;5034712;28;20490;-76
2021/03/06 01:10:47;;;;;;;3.85;2.63;;;;;;;-5.37;74.89;103098.59;5042211;28;20032;-77
2021/03/06 01:13:13;;;;;;;6.65;3.50;;;;;;;-5.37;75.20;103091.59;5039162;28;20114;-77
2021/03/06 01:15:39;;;;;;;3.35;2.67;;;;;;;-5.44;75.15;103100.69;5041913;28;20033;-76
2021/03/06 01:18:06;;;;;;;5.68;3.35;;;;;;;-5.42;75.35;103106.69;5039131;28;20020;-76
2021/03/06 01:20:33;;;;;;;4.88;2.85;;;;;;;-5.41;74.13;103105.75;5056215;28;20151;-77
2021/03/06 01:23:02;;;;;;;7.35;3.67;;;;;;;-5.46;74.34;103102.56;5035566;28;20101;-76
2021/03/06 01:25:29;;;;;;;5.88;3.17;;;;;;;-5.48;74.51;103104.41;5044841;28;20017;-76
2021/03/06 01:27:54;;;;;;;6.93;3.28;;;;;;;-5.59;76.42;103105.00;5041971;28;20137;-76
2021/03/06 01:30:21;;;;;;;3.90;2.53;;;;;;;-5.60;77.95;103115.53;5040317;28;20518;-76
2021/03/06 01:32:46;;;;;;;4.43;2.90;;;;;;;-5.57;75.98;103107.53;5042302;28;20114;-77
2021/03/06 01:35:12;;;;;;;6.57;3.20;;;;;;;-5.58;75.71;103111.06;5039141;28;20056;-76
2021/03/06 01:37:39;;;;;;;4.18;2.40;;;;;;;-5.63;76.42;103107.88;5038479;28;20033;-76
2021/03/06 01:40:09;;;;;;;5.05;2.72;;;;;;;-5.56;76.14;103107.47;5046197;28;20463;-76
2021/03/06 01:42:34;;;;;;;9.57;2.63;;;;;;;-5.57;76.04;103104.91;5045356;28;20036;-77
2021/03/06 01:45:00;;;;;;;5.35;2.90;;;;;;;-5.60;75.26;103098.09;5036912;28;20025;-77
2021/03/06 01:47:25;;;;;;;4.63;2.58;;;;;;;-5.62;75.53;103096.50;5045867;28;20031;-76
2021/03/06 01:49:51;;;;;;;4.95;2.70;;;;;;;-5.62;74.85;103096.50;5039783;28;20033;-76
2021/03/06 01:52:16;;;;;;;5.85;2.78;;;;;;;-5.66;74.89;103087.16;5043253;28;20036;-76
2021/03/06 01:54:43;;;;;;;5.47;2.65;;;;;;;-5.68;74.71;103089.03;5043945;28;20044;-76
2021/03/06 01:57:09;;;;;;;5.72;3.25;;;;;;;-5.67;74.36;103082.88;5048743;28;20029;-76
2021/03/06 01:59:35;;;;;;;6.50;3.58;;;;;;;-5.73;75.15;103088.44;5043068;28;20914;-76
2021/03/06 02:02:01;;;;;;;5.57;3.53;;;;;;;-5.75;74.41;103080.66;5045973;28;20036;-77
2021/03/06 02:04:27;;;;;;;5.55;2.92;;;;;;;-5.90;77.16;103086.78;5046759;28;20108;-76
2021/03/06 02:06:53;;;;;;;7.05;2.83;;;;;;;-5.94;79.03;103088.69;5046553;28;20033;-77
2021/03/06 02:09:19;;;;;;;6.20;3.20;;;;;;;-5.86;76.71;103075.22;5049140;28;20115;-77
2021/03/06 02:12:09;;;;;;;7.45;3.45;;;;;;;-5.87;79.53;103078.75;5044093;28;20017;-76
2021/03/06 02:15:04;;;;;;;5.13;3.13;;;;;;;-5.84;76.71;103071.59;5044973;28;20025;-76
2021/03/06 02:17:48;;;;;;;4.53;2.72;;;;;;;-5.84;75.75;103074.19;5046478;28;20033;-76
2021/03/06 02:20:42;;;;;;;6.90;2.10;;;;;;;-5.95;76.03;103079.19;5061705;28;20384;-76
2021/03/06 02:23:13;;;;;;;5.03;2.72;;;;;;;-6.00;76.70;103081.22;5064520;28;20029;-77
2021/03/06 02:26:06;;;;;;;5.72;2.25;;;;;;;-6.07;77.68;103077.25;5052170;28;20060;-76
2021/03/06 02:28:41;;;;;;;5.18;2.85;;;;;;;-6.12;77.83;103082.69;5046153;28;20052;-76
2021/03/06 02:31:10;;;;;;;5.50;2.78;;;;;;;-6.16;77.99;103088.19;5046201;28;20090;-76
2021/03/06 02:33:38;;;;;;;5.97;3.40;;;;;;;-6.16;78.75;103086.41;5044544;28;20447;-77
2021/03/06 02:36:09;;;;;;;7.22;3.25;;;;;;;-6.18;79.79;103090.03;5045882;28;20108;-76
2021/03/06 02:38:36;;;;;;;7.40;2.90;;;;;;;-6.19;79.25;103085.72;5045200;28;20025;-76
2021/03/06 02:41:02;;;;;;;4.60;2.53;;;;;;;-6.17;80.46;103095.16;5044260;28;20070;-76
2021/03/06 02:43:29;;;;;;;3.67;2.50;;;;;;;-6.09;78.82;103084.31;5044242;28;20490;-76
2021/03/06 02:45:55;;;;;;;4.32;2.03;;;;;;;-6.03;78.09;103089.22;5047263;28;20029;-76
2021/03/06 02:48:21;;;;;;;3.00;2.25;;;;;;;-6.08;77.15;103082.56;5046382;28;20082;-77
2021/03/06 02:50:52;;;;;;;5.22;2.60;;;;;;;-6.16;77.77;103090.78;5035158;28;20044;-76
2021/03/06 02:53:17;;;;;;;5.93;2.47;;;;;;;-6.22;77.19;103091.13;5047693;28;20024;-76
2021/03/06 02:55:43;;;;;;;4.05;2.70;;;;;;;-6.29;76.91;103094.97;5044723;28;20025;-76
2021/03/06 02:58:44;;;;;;;6.10;2.55;;;;;;;-6.36;79.56;103094.44;5041171;28;20024;-76
2021/03/06 03:01:16;;;;;;;4.18;2.05;;;;;;;-6.29;77.88;103089.75;4968335;28;20158;-76
2021/03/06 03:04:03;;;;;;;5.03;2.20;;;;;;;-6.32;76.94;103095.13;5033033;28;20037;-76
2021/03/06 03:06:38;;;;;;;3.35;2.00;;;;;;;-6.32;78.10;103095.13;5039177;28;20025;-77
2021/03/06 03:09:08;;;;;;;4.32;2.42;;;;;;;-6.37;77.88;103089.31;5042134;28;20021;-76
2021/03/06 03:11:58;;;;;;;4.30;2.05;;;;;;;-6.32;78.30;103089.91;5043648;28;20022;-76
2021/03/06 03:14:36;;;;;;;4.57;2.10;;;;;;;-6.16;76.64;103096.00;5040939;28;20055;-76
2021/03/06 03:17:09;;;;;;;2.10;1.77;;;;;;;-6.10;76.39;103087.88;5044771;28;20050;-77
2021/03/06 03:19:47;;;;;;;6.90;2.15;;;;;;;-6.13;76.90;103090.63;5046445;28;20749;-76
2021/03/06 03:22:17;;;;;;;5.22;2.03;;;;;;;-6.12;76.25;103092.28;5044595;28;20461;-77
2021/03/06 03:24:44;;;;;;;6.50;2.50;;;;;;;-6.21;76.23;103087.59;5044697;28;20022;-76
2021/03/06 03:27:11;;;;;;;5.63;1.98;;;;;;;-6.21;77.68;103087.59;5048167;28;20033;-76
2021/03/06 03:29:40;;;;;;;2.88;1.90;;;;;;;-6.15;76.29;103084.63;5043788;28;20024;-77
2021/03/06 03:32:11;;;;;;;4.70;1.90;;;;;;;-6.09;75.41;103079.13;5043500;28;20020;-77
2021/03/06 03:34:39;;;;;;;4.25;1.42;;;;;;;-5.96;76.23;103080.09;5046173;28;20104;-76
2021/03/06 03:37:05;;;;;;;5.28;2.05;;;;;;;-5.95;75.59;103080.94;5044024;28;20439;-76
2021/03/06 03:39:31;;;;;;;2.75;1.58;;;;;;;-6.04;76.81;103084.91;5041236;28;20411;-75
2021/03/06 03:42:00;;;;;;;2.15;1.50;;;;;;;-6.11;76.63;103081.78;5040229;28;20025;-75
2021/03/06 03:44:26;;;;;;;4.10;1.90;;;;;;;-6.22;77.42;103088.50;5038959;28;20151;-76
2021/03/06 03:46:54;;;;;;;4.50;1.75;;;;;;;-6.30;78.99;103088.91;5037792;28;20029;-75
2021/03/06 03:49:21;;;;;;;3.47;1.88;;;;;;;-6.32;78.16;103085.53;5040265;28;20033;-76
2021/03/06 03:51:47;;;;;;;5.22;2.33;;;;;;;-6.34;78.54;103092.59;5044205;28;20020;-76
2021/03/06 03:54:14;;;;;;;4.25;2.10;;;;;;;-6.36;79.82;103084.03;5039277;28;20032;-75
2021/03/06 03:56:40;;;;;;;3.50;2.17;;;;;;;-6.37;78.77;103079.72;5041780;28;20040;-76
2021/03/06 03:59:06;;;;;;;5.53;1.98;;;;;;;-6.35;78.20;103079.63;5040583;28;20020;-76
2021/03/06 04:01:43;;;;;;;3.60;1.75;;;;;;;-6.22;77.07;103080.69;5043065;28;20552;-76
2021/03/06 04:04:20;;;;;;;3.58;1.30;;;;;;;-5.99;75.72;103087.28;5041366;28;20029;-76
2021/03/06 04:06:46;;;;;;;3.67;1.80;;;;;;;-5.81;76.76;103087.06;5039222;28;20056;-76
2021/03/06 04:09:11;;;;;;;4.18;1.65;;;;;;;-5.63;76.16;103079.16;5046057;28;20474;-76
2021/03/06 04:11:37;;;;;;;3.55;1.60;;;;;;;-5.54;75.98;103079.50;5040835;28;20025;-76
2021/03/06 04:14:02;;;;;;;2.38;1.73;;;;;;;-5.49;75.28;103081.84;5045740;28;20114;-76
2021/03/06 04:16:28;;;;;;;8.63;2.05;;;;;;;-5.44;75.88;103079.78;5037123;28;20103;-76
2021/03/06 04:18:53;;;;;;;8.50;2.05;;;;;;;-5.44;74.38;103079.78;5041515;28;20028;-76
2021/03/06 04:21:19;;;;;;;4.22;1.80;;;;;;;-5.38;75.16;103082.09;5038980;28;20510;-76
2021/03/06 04:23:44;;;;;;;5.43;2.22;;;;;;;-5.33;75.41;103087.88;5043530;28;20021;-76
2021/03/06 04:26:10;;;;;;;4.97;1.65;;;;;;;-5.28;74.60;103087.59;5041701;28;20021;-76
2021/03/06 04:28:35;;;;;;;5.75;2.25;;;;;;;-5.26;74.52;103083.97;5044359;28;20025;-77
2021/03/06 04:31:00;;;;;;;4.32;2.00;;;;;;;-5.23;74.02;103081.19;5044551;28;20025;-76
2021/03/06 04:33:26;;;;;;;6.70;2.30;;;;;;;-5.26;74.79;103088.34;5042744;28;20425;-77
2021/03/06 04:35:51;;;;;;;3.90;2.05;;;;;;;-5.26;74.43;103083.97;5046480;28;20039;-76
2021/03/06 04:38:17;;;;;;;5.45;2.15;;;;;;;-5.26;74.29;103081.38;5045177;28;20021;-76
2021/03/06 04:40:42;;;;;;;5.57;2.40;;;;;;;-5.28;75.52;103082.38;5045124;28;20024;-76
2021/03/06 04:43:07;;;;;;;5.63;2.58;;;;;;;-5.30;75.35;103077.25;5042755;28;20039;-76
2021/03/06 04:45:33;;;;;;;4.32;2.22;;;;;;;-5.37;76.36;103075.94;5041721;28;20021;-76
2021/03/06 04:47:58;;;;;;;5.13;2.17;;;;;;;-5.38;76.11;103078.63;5044268;28;20166;-76
2021/03/06 04:50:24;;;;;;;5.43;2.30;;;;;;;-5.42;75.69;103071.88;5043858;28;20438;-76
2021/03/06 04:52:49;;;;;;;8.18;2.70;;;;;;;-5.40;75.92;103076.06;5046850;28;20441;-76
2021/03/06 04:55:15;;;;;;;5.47;2.70;;;;;;;-5.33;74.52;103079.19;5037553;28;20599;-76
2021/03/06 04:57:40;;;;;;;4.10;2.13;;;;;;;-5.26;75.31;103083.13;5040472;28;20506;-76
2021/03/06 05:00:07;;;;;;;6.55;3.30;;;;;;;-5.26;76.32;103077.91;5041908;28;20029;-76
2021/03/06 05:02:34;;;;;;;6.10;2.95;;;;;;;-5.25;76.82;103079.59;5041901;28;20029;-76
2021/03/06 05:04:59;;;;;;;3.90;2.42;;;;;;;-5.26;77.48;103083.13;5041185;28;20613;-76
2021/03/06 05:07:25;;;;;;;5.55;2.80;;;;;;;-5.36;78.05;103084.59;5041054;28;20125;-76
2021/03/06 05:09:51;;;;;;;5.22;2.55;;;;;;;-5.34;76.44;103086.19;5047941;28;20108;-76
2021/03/06 05:12:16;;;;;;;7.03;3.13;;;;;;;-5.23;75.86;103093.41;5044571;28;20029;-76
2021/03/06 05:14:42;;;;;;;4.78;2.75;;;;;;;-5.22;75.38;103090.69;5040674;28;20029;-76
2021/03/06 05:17:07;;;;;;;6.78;3.08;;;;;;;-5.20;75.15;103086.25;5052237;28;20037;-76
2021/03/06 05:19:33;;;;;;;5.13;2.45;;;;;;;-5.20;75.32;103086.25;5035390;28;20547;-76
2021/03/06 05:21:58;;;;;;;7.55;3.33;;;;;;;-5.23;74.88;103094.25;5040816;28;20029;-77
2021/03/06 05:24:24;;;;;;;4.88;3.15;;;;;;;-5.20;75.80;103094.09;5038694;28;20123;-77
2021/03/06 05:27:01;;;;;;;6.50;2.63;;;;;;;-5.23;76.63;103096.84;5034830;28;20057;-77
2021/03/06 05:29:27;;;;;;;6.05;3.33;;;;;;;-5.21;76.23;103095.03;5033321;28;20690;-77
2021/03/06 05:31:53;;;;;;;6.18;3.42;;;;;;;-5.17;75.39;103086.06;5045313;28;20032;-77
2021/03/06 05:34:18;;;;;;;3.75;2.72;;;;;;;-5.17;74.61;103087.84;5037226;28;20036;-77
2021/03/06 05:36:44;;;;;;;5.40;3.00;;;;;;;-5.13;73.99;103083.28;5044503;28;20036;-77
2021/03/06 05:39:09;;;;;;;5.40;2.70;;;;;;;-5.26;77.18;103090.97;5044743;28;20511;-77
2021/03/06 05:41:35;;;;;;;5.20;3.08;;;;;;;-5.23;75.95;103090.78;5040876;28;20025;-77
2021/03/06 05:44:00;;;;;;;6.43;2.70;;;;;;;-5.20;75.14;103091.47;5043738;28;20475;-77
2021/03/06 05:46:26;;;;;;;6.30;3.63;;;;;;;-5.26;77.59;103094.44;5043468;28;20033;-77
2021/03/06 05:48:55;;;;;;;6.60;3.08;;;;;;;-5.18;76.86;103084.41;5038442;28;20108;-77
2021/03/06 05:51:21;;;;;;;5.85;2.70;;;;;;;-5.17;77.54;103083.47;5040124;28;20021;-77
2021/03/06 05:53:49;;;;;;;7.95;3.15;;;;;;;-5.06;76.68;103085.44;5042715;28;20040;-77
2021/03/06 05:56:18;;;;;;;6.28;3.45;;;;;;;-4.85;75.24;103088.56;5036524;28;20051;-77
2021/03/06 05:58:45;;;;;;;5.82;2.92;;;;;;;-4.79;75.26;103090.00;5040856;28;20033;-77
2021/03/06 06:01:13;;;;;;;7.63;3.22;;;;;;;-4.73;75.35;103085.22;5041806;28;20061;-77
2021/03/06 06:03:40;;;;;;;7.82;3.13;;;;;;;-4.64;74.53;103086.47;5041484;28;20036;-77
2021/03/06 06:06:06;;;;;;;8.02;3.50;;;;;;;-4.56;74.87;103092.06;5039234;28;20025;-77
2021/03/06 06:08:34;;;;;;;6.70;3.35;;;;;;;-4.46;75.28;103089.75;5044364;28;20025;-77
2021/03/06 06:10:59;;;;;;;5.00;3.30;;;;;;;-4.38;75.07;103090.97;5037458;28;20038;-77
2021/03/06 06:13:25;;;;;;;6.63;4.20;;;;;;;-4.31;75.24;103105.38;5040350;28;20024;-77
2021/03/06 06:15:55;;;;;;;7.20;3.22;;;;;;;-4.20;73.83;103102.09;5042732;28;20033;-77
2021/03/06 06:18:20;;;;;;;10.25;4.25;;;;;;;-4.03;73.06;103101.88;5038924;28;20028;-77
2021/03/06 06:20:46;;;;;;;11.65;4.32;;;;;;;-4.01;75.10;103094.78;5041876;28;20095;-77
2021/03/06 06:23:13;;;;;;;11.82;4.53;;;;;;;-3.84;73.99;103105.97;5039034;28;20040;-77
2021/03/06 06:25:39;;;;;;;5.95;3.65;;;;;;;-3.73;74.06;103095.69;5039417;28;20380;-76
2021/03/06 06:28:06;;;;;;;7.57;3.92;;;;;;;-3.71;76.12;103099.03;5033748;28;20100;-77
2021/03/06 06:30:32;;;;;;;7.47;4.30;;;;;;;-3.59;75.34;103106.13;5037744;28;20537;-77
2021/03/06 06:32:57;;;;;;;11.10;4.10;;;;;;;-3.61;76.17;103102.72;5037116;28;20017;-78
2021/03/06 06:35:23;;;;;;;8.40;3.80;;;;;;;-3.59;76.20;103103.50;5039826;28;20460;-76
2021/03/06 06:38:04;;;;;;;6.03;3.38;;;;;;;-3.51;76.19;103103.00;5041249;28;20574;-76
2021/03/06 06:40:31;;;;;;;8.45;4.20;;;;;;;-3.23;74.64;103102.91;5042266;28;20064;-76
2021/03/06 06:42:57;;;;;;;9.35;3.95;;;;;;;-3.02;73.43;103105.88;5045950;28;20029;-76
2021/03/06 06:45:24;;;;;;;8.18;3.55;;;;;;;-2.85;73.46;103117.88;5046947;28;20029;-76
2021/03/06 06:47:52;;;;;;;8.65;3.78;;;;;;;-2.99;76.18;103124.03;5044753;28;20037;-77
2021/03/06 06:50:30;;;;;;;6.60;3.60;;;;;;;-2.93;76.20;103128.88;5039894;28;20549;-76
2021/03/06 06:52:55;;;;;;;6.38;4.00;;;;;;;-2.63;74.40;103122.53;5043581;28;20083;-76
2021/03/06 06:55:21;;;;;;;10.52;4.72;;;;;;;-2.56;75.17;103119.38;5042483;28;20450;-76
2021/03/06 06:57:51;;;;;;;11.32;4.35;;;;;;;-2.25;72.91;103112.88;5044551;28;20119;-76
2021/03/06 07:00:18;;;;;;;7.05;4.38;;;;;;;-2.05;73.00;103113.25;5040624;28;20032;-76
2021/03/06 07:02:56;;;;;;;7.57;3.83;;;;;;;-1.98;74.33;103117.97;5044584;28;20053;-75
2021/03/06 07:05:30;;;;;;;7.45;3.63;;;;;;;-1.73;72.27;103121.50;5042885;28;20044;-76
2021/03/06 07:07:58;;;;;;;9.80;4.20;;;;;;;-1.54;71.23;103112.19;5045329;28;20059;-76
2021/03/06 07:10:31;;;;;;;12.27;3.70;;;;;;;-1.39;71.65;103115.50;5037055;28;20384;-76
2021/03/06 07:12:59;;;;;;;8.80;5.10;;;;;;;-1.18;70.81;103106.97;5043435;28;20025;-77
2021/03/06 07:15:26;;;;;;;9.38;4.00;;;;;;;-1.04;70.61;103110.25;5041927;28;20059;-76
2021/03/06 07:17:54;;;;;;;8.32;3.58;;;;;;;-0.94;71.02;103116.50;5041146;28;20109;-76
2021/03/06 07:20:20;;;;;;;6.90;3.05;;;;;;;-0.78;71.18;103110.09;5039637;28;20037;-76
2021/03/06 07:22:46;;;;;;;6.80;3.75;;;;;;;-0.58;69.98;103113.84;5045250;28;20032;-76
2021/03/06 07:25:11;;;;;;;6.25;3.40;;;;;;;-0.49;69.86;103106.09;5043177;28;20482;-76
2021/03/06 07:27:37;;;;;;;6.85;3.38;;;;;;;-0.42;69.60;103096.75;5043150;28;20052;-76
2021/03/06 07:30:07;;;;;;;7.35;3.30;;;;;;;-0.33;70.00;103101.31;5041212;28;20036;-76
2021/03/06 07:32:37;;;;;;;5.55;3.28;;;;;;;-0.19;69.50;103102.00;5041576;28;20171;-76
2021/03/06 07:35:05;;;;;;;11.07;3.03;;;;;;;-0.13;69.20;103107.66;5043671;28;20070;-76
2021/03/06 07:37:31;;;;;;;5.47;2.90;;;;;;;-0.06;68.96;103102.75;5040361;28;20044;-76
2021/03/06 07:40:00;;;;;;;6.13;3.00;;;;;;;0.03;68.64;103103.81;5042085;28;20154;-76
2021/03/06 07:42:41;;;;;;;6.25;2.92;;;;;;;0.15;68.91;103095.75;5042248;28;20025;-76
2021/03/06 07:45:07;;;;;;;6.97;3.10;;;;;;;0.11;69.16;103098.78;5041742;28;20029;-76
2021/03/06 07:47:38;;;;;;;8.70;3.03;;;;;;;0.19;69.08;103102.50;5040656;28;20025;-76
2021/03/06 07:50:07;;;;;;;5.38;3.33;;;;;;;0.41;68.32;103101.59;5040843;28;20602;-76
2021/03/06 07:52:37;;;;;;;6.57;3.28;;;;;;;0.36;68.73;103105.53;5039332;28;20018;-76
2021/03/06 07:55:04;;;;;;;6.65;3.10;;;;;;;0.52;67.94;103098.06;5040958;28;20025;-76
2021/03/06 07:57:30;;;;;;;6.63;2.92;;;;;;;0.69;67.64;103096.69;5040193;28;20037;-76
2021/03/06 07:59:56;;;;;;;6.18;3.30;;;;;;;0.65;67.91;103108.47;5040999;28;20044;-76
2021/03/06 08:02:38;;;;;;;6.68;3.47;;;;;;;0.81;67.82;103100.97;5041245;28;20029;-76
2021/03/06 08:05:41;;;;;;;5.25;3.10;;;;;;;0.80;67.42;103107.22;5043616;28;20029;-76
2021/03/06 08:08:06;;;;;;;4.38;2.83;;;;;;;0.93;67.38;103107.06;5039908;28;20028;-76
2021/03/06 08:11:05;;;;;;;8.25;3.58;;;;;;;0.83;67.32;103102.53;5040409;28;20078;-76
2021/03/06 08:13:53;;;;;;;5.43;3.00;;;;;;;0.80;68.19;103097.50;5039168;28;20017;-76
2021/03/06 08:16:21;;;;;;;6.35;3.25;;;;;;;1.02;67.30;103108.91;5040805;28;20028;-76
2021/03/06 08:18:47;;;;;;;5.85;2.90;;;;;;;1.23;66.86;103098.34;5034623;28;20037;-76
2021/03/06 08:21:29;;;;;;;10.50;3.88;;;;;;;1.09;66.97;103102.19;5033396;28;20644;-77
2021/03/06 08:27:02;;;;;;;7.15;3.47;;;;;;;1.07;67.32;103106.72;5035135;28;20036;-76
2021/03/06 08:29:27;;;;;;;5.28;3.60;;;;;;;1.16;67.04;103108.59;5038593;28;20028;-76
2021/03/06 08:32:04;;;;;;;8.02;3.53;;;;;;;1.47;66.44;103107.69;5040507;28;20039;-76
2021/03/06 08:34:52;;;;;;;7.22;2.70;;;;;;;1.44;64.79;103100.03;5038212;28;20029;-76
2021/03/06 08:37:20;;;;;;;5.75;2.95;;;;;;;1.35;64.13;103102.63;5040809;28;20024;-76
2021/03/06 08:39:47;;;;;;;4.03;2.72;;;;;;;1.43;65.51;103102.78;5041655;28;20060;-76
2021/03/06 08:42:15;;;;;;;12.25;3.78;;;;;;;1.38;64.43;103110.28;5041369;28;20040;-76
2021/03/06 08:44:41;;;;;;;5.80;3.17;;;;;;;1.50;64.14;103102.16;5038995;28;20025;-76
2021/03/06 08:47:08;;;;;;;6.65;2.58;;;;;;;1.51;63.23;103103.81;5038141;28;20051;-76
2021/03/06 08:49:35;;;;;;;6.28;3.00;;;;;;;1.65;62.86;103109.75;5037798;28;20021;-76
2021/03/06 08:52:00;;;;;;;6.82;3.03;;;;;;;1.75;62.02;103118.53;5044948;28;20021;-76
2021/03/06 08:54:26;;;;;;;9.90;3.33;;;;;;;1.95;61.71;103117.66;5042298;28;20025;-76
2021/03/06 08:56:53;;;;;;;5.57;3.17;;;;;;;1.83;60.70;103121.38;5043942;28;20039;-77
2021/03/06 08:59:36;;;;;;;5.63;3.35;;;;;;;1.91;61.73;103112.78;5041046;28;20099;-77
2021/03/06 09:02:15;;;;;;;5.85;2.80;;;;;;;1.86;61.09;103113.19;5040705;28;20094;-77
2021/03/06 09:04:41;;;;;;;6.68;3.38;;;;;;;1.97;60.24;103114.88;5036691;28;20036;-76
2021/03/06 09:07:11;;;;;;;7.53;2.75;;;;;;;2.09;59.54;103114.63;5043071;28;20017;-76
2021/03/06 09:09:36;;;;;;;5.10;2.53;;;;;;;2.01;58.90;103111.00;5037856;28;20028;-77
2021/03/06 09:12:03;;;;;;;3.72;2.80;;;;;;;2.20;58.49;103104.94;5040373;28;20021;-77
2021/03/06 09:14:29;;;;;;;3.75;2.15;;;;;;;2.15;58.67;103112.41;5035715;28;20672;-77
2021/03/06 09:16:55;;;;;;;5.57;2.10;;;;;;;2.27;58.67;103100.78;5041555;28;20040;-77
2021/03/06 09:19:29;;;;;;;6.10;2.35;;;;;;;2.20;57.97;103103.13;5039910;28;20382;-76
2021/03/06 09:22:03;;;;;;;4.53;2.88;;;;;;;2.38;58.07;103100.66;5053434;28;20025;-76
2021/03/06 09:24:50;;;;;;;6.10;2.50;;;;;;;2.55;56.45;103094.69;5039068;28;20021;-77
2021/03/06 09:27:17;;;;;;;5.75;2.63;;;;;;;2.77;56.76;103090.94;5041735;28;20079;-77
2021/03/06 09:29:45;;;;;;;4.25;2.10;;;;;;;2.86;55.85;103092.75;5034733;28;20458;-77
2021/03/06 09:32:11;;;;;;;4.28;2.05;;;;;;;2.79;55.06;103096.09;5029027;28;20087;-77
2021/03/06 09:34:38;;;;;;;8.43;2.70;;;;;;;2.77;54.42;103090.09;5038170;28;20071;-77
2021/03/06 09:37:17;;;;;;;3.63;2.22;;;;;;;2.94;53.92;103089.41;5034421;28;20480;-77
2021/03/06 09:39:43;;;;;;;3.35;2.42;;;;;;;3.06;53.69;103093.59;5032313;28;20116;-77
2021/03/06 09:42:09;;;;;;;2.95;2.35;;;;;;;3.17;53.33;103082.81;5043304;28;20131;-76
2021/03/06 09:44:36;;;;;;;6.65;3.10;;;;;;;3.29;52.91;103087.00;5042681;28;20035;-77
2021/03/06 09:47:02;;;;;;;4.22;2.25;;;;;;;3.49;52.10;103085.13;5036971;28;20025;-77
2021/03/06 09:49:35;;;;;;;4.95;2.10;;;;;;;3.40;51.01;103093.91;5041539;28;20032;-78
2021/03/06 09:52:01;;;;;;;3.63;2.60;;;;;;;3.42;49.85;103089.34;5041284;28;20112;-76
2021/03/06 09:54:34;;;;;;;2.40;1.75;;;;;;;3.42;47.12;103092.00;5037992;28;20025;-76
2021/03/06 09:57:01;;;;;;;4.13;1.90;;;;;;;3.40;46.49;103091.28;5040694;28;20166;-76
2021/03/06 09:59:29;;;;;;;2.42;1.55;;;;;;;3.41;46.32;103081.50;5037084;28;20024;-78
2021/03/06 10:02:02;;;;;;;5.55;2.13;;;;;;;3.67;47.67;103079.91;5034043;28;20033;-77
2021/03/06 10:04:27;;;;;;;3.97;1.80;;;;;;;3.76;48.52;103079.00;5039976;28;20028;-76
2021/03/06 10:06:56;;;;;;;3.85;1.90;;;;;;;4.13;47.94;103078.13;5036706;28;20030;-75
2021/03/06 10:09:23;;;;;;;2.67;1.52;;;;;;;4.20;45.58;103074.75;5038058;28;20379;-75
2021/03/06 10:11:51;;;;;;;2.92;1.75;;;;;;;3.90;45.42;103078.53;5029979;28;20021;-75
2021/03/06 10:14:19;;;;;;;5.90;1.92;;;;;;;3.93;46.30;103077.41;5036765;28;20036;-76
2021/03/06 10:16:46;;;;;;;4.55;1.50;;;;;;;4.16;46.30;103069.91;5040258;28;20108;-76
2021/03/06 10:19:12;;;;;;;3.63;1.35;;;;;;;4.24;45.37;103067.31;5037389;28;20036;-75
2021/03/06 10:21:38;;;;;;;5.55;2.17;;;;;;;4.36;45.51;103076.75;5038057;28;20032;-76
2021/03/06 10:24:05;;;;;;;4.05;2.08;;;;;;;4.34;46.35;103059.31;5036291;28;20036;-76
2021/03/06 10:26:31;;;;;;;2.08;1.80;;;;;;;4.76;46.48;103056.88;5035600;28;20502;-76
2021/03/06 10:29:17;;;;;;;2.83;1.55;;;;;;;4.64;45.82;103063.38;5040181;28;20036;-75
2021/03/06 10:31:43;;;;;;;4.50;1.70;;;;;;;4.58;46.12;103051.56;5038030;28;20035;-75
2021/03/06 10:34:25;;;;;;;7.22;1.67;;;;;;;5.05;46.06;103053.94;5036173;28;20036;-75
2021/03/06 10:37:14;;;;;;;4.75;1.90;;;;;;;5.25;45.57;103057.25;5036385;28;20033;-75
2021/03/06 10:39:59;;;;;;;1.88;1.65;;;;;;;5.13;46.72;103062.78;5038845;28;20104;-76
2021/03/06 10:42:40;;;;;;;2.55;1.75;;;;;;;5.21;47.02;103058.53;5041092;28;20020;-76
2021/03/06 10:45:08;;;;;;;2.80;1.63;;;;;;;4.88;48.74;103060.97;5035046;28;20556;-77
2021/03/06 10:47:48;;;;;;;3.15;1.73;;;;;;;4.73;49.85;103062.50;5042791;28;20063;-76
2021/03/06 10:50:29;;;;;;;5.50;1.73;;;;;;;5.00;49.47;103051.72;5042059;28;20651;-76
2021/03/06 10:53:14;;;;;;;4.68;2.70;;;;;;;5.40;49.32;103058.34;5045046;28;20036;-76
2021/03/06 10:55:41;;;;;;;3.93;2.30;;;;;;;5.04;50.17;103057.59;5059636;28;20033;-76
2021/03/06 10:58:06;;;;;;;4.38;1.70;;;;;;;4.99;51.59;103063.34;5044372;28;20116;-76
2021/03/06 11:00:42;;;;;;;4.47;1.80;;;;;;;4.78;52.75;103058.38;5048008;28;20510;-76
2021/03/06 11:03:11;;;;;;;2.83;1.90;;;;;;;4.31;54.04;103065.75;5036764;28;20120;-77
2021/03/06 11:05:38;;;;;;;5.20;1.60;;;;;;;3.92;55.39;103055.34;5042413;28;20102;-76
2021/03/06 11:08:14;;;;;;;2.63;1.50;;;;;;;4.00;55.63;103067.06;5041147;28;20028;-76
2021/03/06 11:10:43;;;;;;;4.93;1.88;;;;;;;3.66;59.79;103072.94;5042835;28;20178;-76
2021/03/06 11:13:08;;;;;;;5.38;2.03;;;;;;;3.61;61.27;103067.22;5043744;28;20037;-76
2021/03/06 11:15:34;;;;;;;4.45;2.13;;;;;;;3.58;61.71;103057.72;5042186;28;20036;-76
2021/03/06 11:18:03;;;;;;;5.10;2.13;;;;;;;3.82;60.79;103067.84;5041935;28;20054;-76
2021/03/06 11:20:32;;;;;;;6.80;2.17;;;;;;;3.83;61.17;103058.91;5038725;28;20119;-75
2021/03/06 11:23:03;;;;;;;5.15;2.45;;;;;;;4.22;60.31;103053.38;5041877;28;20055;-75
2021/03/06 11:25:30;;;;;;;4.03;2.25;;;;;;;4.38;60.33;103052.69;5040001;28;20029;-76
2021/03/06 11:27:57;;;;;;;2.70;2.17;;;;;;;4.40;59.23;103056.03;5044217;28;20119;-76
2021/03/06 11:30:29;;;;;;;7.63;2.97;;;;;;;4.61;59.28;103047.75;5036289;28;20539;-75
2021/03/06 11:32:55;;;;;;;7.25;4.15;;;;;;;4.81;58.15;103051.91;5040588;28;20041;-75
2021/03/06 11:35:22;;;;;;;4.30;2.50;;;;;;;4.59;58.61;103047.09;5042296;28;20028;-74
2021/03/06 11:37:48;;;;;;;4.43;2.70;;;;;;;4.55;57.43;103067.81;5039507;28;20507;-74